Terminal Aerodrome Forecast
Issued by NWS

Home | Current Version | Previous Version | Text Only | Print | Product List | Glossary On
Versions: 1 2 3 4 5 6 7 8 9 10 11 12 13 14 15
000
FTUS41 KPHI 011100
TAFPNE
TAF
KPNE 011137Z 0112/0212 VRB03KT P6SM BKN150
     FM011500 20007KT P6SM SCT040 BKN100
      TEMPO 0119/0123 6SM -SHRA BKN040
     FM020100 VRB04KT P6SM OVC060
     FM020600 06004KT 5SM -SHRA BR OVC060=

USA.gov is the U.S. government's official web portal to all federal, state and local government web resources and services.